sensor_id;sensor_type;location;lat;lon;timestamp;P1;durP1;ratioP1;P2;durP2;ratioP2
28174;SDS011;59417;44.788;10.334;2024-01-27T00:00:19;39.65;;;27.00;;
28174;SDS011;59417;44.788;10.334;2024-01-27T00:02:44;33.33;;;24.65;;
28174;SDS011;59417;44.788;10.334;2024-01-27T00:05:10;36.65;;;25.52;;
28174;SDS011;59417;44.788;10.334;2024-01-27T00:07:38;36.33;;;24.10;;
28174;SDS011;59417;44.788;10.334;2024-01-27T00:10:05;35.10;;;23.55;;
28174;SDS011;59417;44.788;10.334;2024-01-27T00:12:31;33.60;;;24.58;;
28174;SDS011;59417;44.788;10.334;2024-01-27T00:14:57;34.17;;;23.30;;
28174;SDS011;59417;44.788;10.334;2024-01-27T00:17:23;36.08;;;24.83;;
28174;SDS011;59417;44.788;10.334;2024-01-27T00:19:54;32.03;;;24.23;;
28174;SDS011;59417;44.788;10.334;2024-01-27T00:22:23;35.15;;;24.40;;
28174;SDS011;59417;44.788;10.334;2024-01-27T00:24:51;38.92;;;23.80;;
28174;SDS011;59417;44.788;10.334;2024-01-27T00:27:16;47.55;;;25.02;;
28174;SDS011;59417;44.788;10.334;2024-01-27T00:29:44;34.88;;;24.67;;
28174;SDS011;59417;44.788;10.334;2024-01-27T00:32:10;38.95;;;25.40;;
28174;SDS011;59417;44.788;10.334;2024-01-27T00:34:39;44.10;;;25.60;;
28174;SDS011;59417;44.788;10.334;2024-01-27T00:37:05;46.50;;;28.48;;
28174;SDS011;59417;44.788;10.334;2024-01-27T00:39:32;41.20;;;28.63;;
28174;SDS011;59417;44.788;10.334;2024-01-27T00:42:01;44.60;;;28.75;;
28174;SDS011;59417;44.788;10.334;2024-01-27T00:44:27;49.22;;;27.58;;
28174;SDS011;59417;44.788;10.334;2024-01-27T00:46:52;43.03;;;28.50;;
28174;SDS011;59417;44.788;10.334;2024-01-27T00:49:18;43.83;;;28.13;;
28174;SDS011;59417;44.788;10.334;2024-01-27T00:51:44;49.47;;;30.15;;
28174;SDS011;59417;44.788;10.334;2024-01-27T00:54:12;43.83;;;30.27;;
28174;SDS011;59417;44.788;10.334;2024-01-27T00:56:38;47.50;;;29.65;;
28174;SDS011;59417;44.788;10.334;2024-01-27T00:59:04;46.67;;;28.70;;
28174;SDS011;59417;44.788;10.334;2024-01-27T01:01:29;46.13;;;29.02;;
28174;SDS011;59417;44.788;10.334;2024-01-27T01:03:56;42.22;;;28.27;;
28174;SDS011;59417;44.788;10.334;2024-01-27T01:06:22;42.58;;;29.80;;
28174;SDS011;59417;44.788;10.334;2024-01-27T01:08:49;41.50;;;29.38;;
28174;SDS011;59417;44.788;10.334;2024-01-27T01:11:14;35.85;;;24.88;;
28174;SDS011;59417;44.788;10.334;2024-01-27T01:13:41;40.22;;;26.85;;
28174;SDS011;59417;44.788;10.334;2024-01-27T01:16:07;37.83;;;27.90;;
28174;SDS011;59417;44.788;10.334;2024-01-27T01:18:33;36.65;;;25.48;;
28174;SDS011;59417;44.788;10.334;2024-01-27T01:20:59;41.78;;;27.48;;
28174;SDS011;59417;44.788;10.334;2024-01-27T01:23:27;42.67;;;28.90;;
28174;SDS011;59417;44.788;10.334;2024-01-27T01:25:52;44.58;;;28.02;;
28174;SDS011;59417;44.788;10.334;2024-01-27T01:28:18;40.72;;;30.52;;
28174;SDS011;59417;44.788;10.334;2024-01-27T01:30:46;45.20;;;30.15;;
28174;SDS011;59417;44.788;10.334;2024-01-27T01:33:12;41.65;;;29.08;;
28174;SDS011;59417;44.788;10.334;2024-01-27T01:35:40;42.55;;;29.38;;
28174;SDS011;59417;44.788;10.334;2024-01-27T01:38:06;38.67;;;28.60;;
28174;SDS011;59417;44.788;10.334;2024-01-27T01:40:32;39.40;;;30.85;;
28174;SDS011;59417;44.788;10.334;2024-01-27T01:42:58;39.78;;;27.48;;
28174;SDS011;59417;44.788;10.334;2024-01-27T01:47:52;38.55;;;26.13;;
28174;SDS011;59417;44.788;10.334;2024-01-27T01:50:18;40.97;;;29.10;;
28174;SDS011;59417;44.788;10.334;2024-01-27T01:52:44;37.35;;;28.50;;
28174;SDS011;59417;44.788;10.334;2024-01-27T01:55:09;37.10;;;28.67;;
28174;SDS011;59417;44.788;10.334;2024-01-27T01:57:38;40.55;;;30.02;;
28174;SDS011;59417;44.788;10.334;2024-01-27T02:00:04;44.85;;;31.00;;
28174;SDS011;59417;44.788;10.334;2024-01-27T02:02:37;41.03;;;29.05;;
28174;SDS011;59417;44.788;10.334;2024-01-27T02:05:02;45.15;;;31.05;;
28174;SDS011;59417;44.788;10.334;2024-01-27T02:07:28;45.05;;;31.80;;
28174;SDS011;59417;44.788;10.334;2024-01-27T02:09:56;40.78;;;28.75;;
28174;SDS011;59417;44.788;10.334;2024-01-27T02:12:27;48.35;;;32.25;;
28174;SDS011;59417;44.788;10.334;2024-01-27T02:14:53;44.90;;;31.08;;
28174;SDS011;59417;44.788;10.334;2024-01-27T02:17:19;46.58;;;31.90;;
28174;SDS011;59417;44.788;10.334;2024-01-27T02:19:45;47.58;;;31.23;;
28174;SDS011;59417;44.788;10.334;2024-01-27T02:22:11;47.47;;;29.50;;
28174;SDS011;59417;44.788;10.334;2024-01-27T02:24:37;47.08;;;29.67;;
28174;SDS011;59417;44.788;10.334;2024-01-27T02:27:03;39.47;;;26.48;;
28174;SDS011;59417;44.788;10.334;2024-01-27T02:29:28;44.63;;;30.77;;
28174;SDS011;59417;44.788;10.334;2024-01-27T02:31:54;44.95;;;28.95;;
28174;SDS011;59417;44.788;10.334;2024-01-27T02:34:20;44.20;;;29.58;;
28174;SDS011;59417;44.788;10.334;2024-01-27T02:36:46;45.40;;;29.90;;
28174;SDS011;59417;44.788;10.334;2024-01-27T02:39:11;41.53;;;28.77;;
28174;SDS011;59417;44.788;10.334;2024-01-27T02:41:39;46.22;;;28.60;;
28174;SDS011;59417;44.788;10.334;2024-01-27T02:44:05;42.72;;;28.45;;
28174;SDS011;59417;44.788;10.334;2024-01-27T02:46:33;39.45;;;26.23;;
28174;SDS011;59417;44.788;10.334;2024-01-27T02:48:59;43.45;;;27.27;;
28174;SDS011;59417;44.788;10.334;2024-01-27T02:51:27;39.03;;;26.92;;
28174;SDS011;59417;44.788;10.334;2024-01-27T02:53:53;42.55;;;27.08;;
28174;SDS011;59417;44.788;10.334;2024-01-27T02:56:18;37.33;;;27.52;;
28174;SDS011;59417;44.788;10.334;2024-01-27T02:58:47;36.65;;;27.17;;
28174;SDS011;59417;44.788;10.334;2024-01-27T03:01:13;39.08;;;25.77;;
28174;SDS011;59417;44.788;10.334;2024-01-27T03:03:39;40.17;;;26.40;;
28174;SDS011;59417;44.788;10.334;2024-01-27T03:06:07;40.03;;;25.95;;
28174;SDS011;59417;44.788;10.334;2024-01-27T03:08:32;37.50;;;25.75;;
28174;SDS011;59417;44.788;10.334;2024-01-27T03:10:58;36.17;;;25.77;;
28174;SDS011;59417;44.788;10.334;2024-01-27T03:13:24;35.10;;;25.30;;
28174;SDS011;59417;44.788;10.334;2024-01-27T03:15:50;43.45;;;26.48;;
28174;SDS011;59417;44.788;10.334;2024-01-27T03:18:20;36.67;;;25.33;;
28174;SDS011;59417;44.788;10.334;2024-01-27T03:20:46;38.40;;;26.63;;
28174;SDS011;59417;44.788;10.334;2024-01-27T03:23:12;35.25;;;26.23;;
28174;SDS011;59417;44.788;10.334;2024-01-27T03:25:38;39.05;;;26.30;;
28174;SDS011;59417;44.788;10.334;2024-01-27T03:28:04;38.42;;;25.40;;
28174;SDS011;59417;44.788;10.334;2024-01-27T03:30:30;39.85;;;25.58;;
28174;SDS011;59417;44.788;10.334;2024-01-27T03:32:56;36.10;;;25.67;;
28174;SDS011;59417;44.788;10.334;2024-01-27T03:35:21;37.08;;;25.45;;
28174;SDS011;59417;44.788;10.334;2024-01-27T03:37:47;31.58;;;23.98;;
28174;SDS011;59417;44.788;10.334;2024-01-27T03:40:14;40.92;;;26.10;;
28174;SDS011;59417;44.788;10.334;2024-01-27T03:42:39;35.17;;;24.98;;
28174;SDS011;59417;44.788;10.334;2024-01-27T03:45:05;29.95;;;23.63;;
28174;SDS011;59417;44.788;10.334;2024-01-27T03:47:31;35.55;;;26.05;;
28174;SDS011;59417;44.788;10.334;2024-01-27T03:49:57;35.28;;;24.27;;
28174;SDS011;59417;44.788;10.334;2024-01-27T03:52:23;32.58;;;23.35;;
28174;SDS011;59417;44.788;10.334;2024-01-27T03:54:49;32.60;;;22.27;;
28174;SDS011;59417;44.788;10.334;2024-01-27T03:57:14;25.20;;;17.50;;
28174;SDS011;59417;44.788;10.334;2024-01-27T03:59:40;28.30;;;18.77;;
28174;SDS011;59417;44.788;10.334;2024-01-27T04:02:06;27.80;;;18.30;;
28174;SDS011;59417;44.788;10.334;2024-01-27T04:04:32;28.85;;;21.27;;
28174;SDS011;59417;44.788;10.334;2024-01-27T04:06:58;28.27;;;20.45;;
28174;SDS011;59417;44.788;10.334;2024-01-27T04:09:24;27.65;;;19.55;;
28174;SDS011;59417;44.788;10.334;2024-01-27T04:11:50;30.42;;;20.10;;
28174;SDS011;59417;44.788;10.334;2024-01-27T04:14:16;30.98;;;17.73;;
28174;SDS011;59417;44.788;10.334;2024-01-27T04:16:41;25.35;;;15.77;;
28174;SDS011;59417;44.788;10.334;2024-01-27T04:19:07;23.25;;;16.02;;
28174;SDS011;59417;44.788;10.334;2024-01-27T04:21:33;20.65;;;14.73;;
28174;SDS011;59417;44.788;10.334;2024-01-27T04:23:59;23.20;;;15.18;;
28174;SDS011;59417;44.788;10.334;2024-01-27T04:26:24;21.38;;;15.50;;
28174;SDS011;59417;44.788;10.334;2024-01-27T04:28:50;26.65;;;17.48;;
28174;SDS011;59417;44.788;10.334;2024-01-27T04:31:18;22.42;;;17.00;;
28174;SDS011;59417;44.788;10.334;2024-01-27T04:33:44;27.13;;;18.67;;
28174;SDS011;59417;44.788;10.334;2024-01-27T04:36:10;31.23;;;18.30;;
28174;SDS011;59417;44.788;10.334;2024-01-27T04:38:35;29.25;;;18.75;;
28174;SDS011;59417;44.788;10.334;2024-01-27T04:41:01;29.80;;;17.73;;
28174;SDS011;59417;44.788;10.334;2024-01-27T04:43:27;28.13;;;18.15;;
28174;SDS011;59417;44.788;10.334;2024-01-27T04:45:53;28.45;;;18.92;;
28174;SDS011;59417;44.788;10.334;2024-01-27T04:48:19;26.70;;;17.73;;
28174;SDS011;59417;44.788;10.334;2024-01-27T04:50:45;26.80;;;18.38;;
28174;SDS011;59417;44.788;10.334;2024-01-27T04:53:12;28.27;;;18.77;;
28174;SDS011;59417;44.788;10.334;2024-01-27T04:55:38;25.50;;;18.88;;
28174;SDS011;59417;44.788;10.334;2024-01-27T04:58:06;29.33;;;18.48;;
28174;SDS011;59417;44.788;10.334;2024-01-27T05:00:32;23.88;;;17.08;;
28174;SDS011;59417;44.788;10.334;2024-01-27T05:02:58;26.55;;;19.25;;
28174;SDS011;59417;44.788;10.334;2024-01-27T05:05:28;22.83;;;17.42;;
28174;SDS011;59417;44.788;10.334;2024-01-27T05:07:54;23.92;;;17.98;;
28174;SDS011;59417;44.788;10.334;2024-01-27T05:10:20;25.83;;;18.98;;
28174;SDS011;59417;44.788;10.334;2024-01-27T05:12:47;26.08;;;18.98;;
28174;SDS011;59417;44.788;10.334;2024-01-27T05:15:13;32.03;;;20.00;;
28174;SDS011;59417;44.788;10.334;2024-01-27T05:17:39;24.05;;;18.23;;
28174;SDS011;59417;44.788;10.334;2024-01-27T05:20:04;29.88;;;18.75;;
28174;SDS011;59417;44.788;10.334;2024-01-27T05:22:31;27.52;;;18.15;;
28174;SDS011;59417;44.788;10.334;2024-01-27T05:24:57;28.33;;;19.55;;
28174;SDS011;59417;44.788;10.334;2024-01-27T05:27:22;28.55;;;20.30;;
28174;SDS011;59417;44.788;10.334;2024-01-27T05:29:48;23.23;;;17.17;;
28174;SDS011;59417;44.788;10.334;2024-01-27T05:32:14;26.83;;;18.65;;
28174;SDS011;59417;44.788;10.334;2024-01-27T05:34:40;24.02;;;18.67;;
28174;SDS011;59417;44.788;10.334;2024-01-27T05:37:06;34.58;;;18.65;;
28174;SDS011;59417;44.788;10.334;2024-01-27T05:39:31;26.88;;;17.95;;
28174;SDS011;59417;44.788;10.334;2024-01-27T05:41:59;27.70;;;17.48;;
28174;SDS011;59417;44.788;10.334;2024-01-27T05:44:24;32.45;;;20.73;;
28174;SDS011;59417;44.788;10.334;2024-01-27T05:46:50;25.40;;;19.08;;
28174;SDS011;59417;44.788;10.334;2024-01-27T05:49:18;23.58;;;16.42;;
28174;SDS011;59417;44.788;10.334;2024-01-27T05:51:44;23.75;;;16.65;;
28174;SDS011;59417;44.788;10.334;2024-01-27T05:54:10;27.52;;;16.92;;
28174;SDS011;59417;44.788;10.334;2024-01-27T05:56:38;24.02;;;16.20;;
28174;SDS011;59417;44.788;10.334;2024-01-27T05:59:04;25.98;;;16.90;;
28174;SDS011;59417;44.788;10.334;2024-01-27T06:01:30;23.30;;;15.77;;
28174;SDS011;59417;44.788;10.334;2024-01-27T06:03:55;24.30;;;15.52;;
28174;SDS011;59417;44.788;10.334;2024-01-27T06:06:21;26.50;;;16.13;;
28174;SDS011;59417;44.788;10.334;2024-01-27T06:08:47;19.55;;;14.85;;
28174;SDS011;59417;44.788;10.334;2024-01-27T06:11:12;22.63;;;14.80;;
28174;SDS011;59417;44.788;10.334;2024-01-27T06:13:38;23.92;;;16.08;;
28174;SDS011;59417;44.788;10.334;2024-01-27T06:16:06;22.45;;;16.00;;
28174;SDS011;59417;44.788;10.334;2024-01-27T06:18:34;22.00;;;16.23;;
28174;SDS011;59417;44.788;10.334;2024-01-27T06:21:01;23.77;;;17.83;;
28174;SDS011;59417;44.788;10.334;2024-01-27T06:23:28;25.17;;;17.05;;
28174;SDS011;59417;44.788;10.334;2024-01-27T06:25:53;20.98;;;17.35;;
28174;SDS011;59417;44.788;10.334;2024-01-27T06:28:22;26.65;;;19.52;;
28174;SDS011;59417;44.788;10.334;2024-01-27T06:30:48;27.25;;;19.00;;
28174;SDS011;59417;44.788;10.334;2024-01-27T06:33:13;27.30;;;20.27;;
28174;SDS011;59417;44.788;10.334;2024-01-27T06:35:39;28.88;;;19.27;;
28174;SDS011;59417;44.788;10.334;2024-01-27T06:38:07;22.98;;;17.45;;
28174;SDS011;59417;44.788;10.334;2024-01-27T06:40:33;30.45;;;18.63;;
28174;SDS011;59417;44.788;10.334;2024-01-27T06:42:58;24.50;;;19.20;;
28174;SDS011;59417;44.788;10.334;2024-01-27T06:45:24;25.20;;;18.73;;
28174;SDS011;59417;44.788;10.334;2024-01-27T06:47:50;32.47;;;19.58;;
28174;SDS011;59417;44.788;10.334;2024-01-27T06:50:16;25.33;;;19.58;;
28174;SDS011;59417;44.788;10.334;2024-01-27T06:52:41;25.08;;;18.25;;
28174;SDS011;59417;44.788;10.334;2024-01-27T06:55:07;25.33;;;19.70;;
28174;SDS011;59417;44.788;10.334;2024-01-27T06:57:35;27.27;;;19.83;;
28174;SDS011;59417;44.788;10.334;2024-01-27T07:00:01;27.38;;;19.92;;
28174;SDS011;59417;44.788;10.334;2024-01-27T07:02:28;29.85;;;21.77;;
28174;SDS011;59417;44.788;10.334;2024-01-27T07:04:54;33.83;;;23.63;;
28174;SDS011;59417;44.788;10.334;2024-01-27T07:07:22;35.35;;;26.05;;
28174;SDS011;59417;44.788;10.334;2024-01-27T07:09:52;38.10;;;24.40;;
28174;SDS011;59417;44.788;10.334;2024-01-27T07:12:21;62.63;;;28.70;;
28174;SDS011;59417;44.788;10.334;2024-01-27T07:14:49;69.65;;;29.20;;
28174;SDS011;59417;44.788;10.334;2024-01-27T07:17:16;50.20;;;25.70;;
28174;SDS011;59417;44.788;10.334;2024-01-27T07:19:42;66.72;;;30.77;;
28174;SDS011;59417;44.788;10.334;2024-01-27T07:22:08;50.78;;;29.83;;
28174;SDS011;59417;44.788;10.334;2024-01-27T07:24:34;42.05;;;26.02;;
28174;SDS011;59417;44.788;10.334;2024-01-27T07:27:00;70.07;;;30.10;;
28174;SDS011;59417;44.788;10.334;2024-01-27T07:29:26;45.78;;;32.15;;
28174;SDS011;59417;44.788;10.334;2024-01-27T07:31:52;46.30;;;30.55;;
28174;SDS011;59417;44.788;10.334;2024-01-27T07:34:18;43.83;;;28.60;;
28174;SDS011;59417;44.788;10.334;2024-01-27T07:36:44;43.25;;;30.70;;
28174;SDS011;59417;44.788;10.334;2024-01-27T07:39:13;41.47;;;29.70;;
28174;SDS011;59417;44.788;10.334;2024-01-27T07:41:40;52.78;;;35.00;;
28174;SDS011;59417;44.788;10.334;2024-01-27T07:44:14;49.63;;;31.50;;
28174;SDS011;59417;44.788;10.334;2024-01-27T07:46:47;44.28;;;29.88;;
28174;SDS011;59417;44.788;10.334;2024-01-27T07:49:13;44.40;;;30.48;;
28174;SDS011;59417;44.788;10.334;2024-01-27T07:51:41;67.63;;;33.97;;
28174;SDS011;59417;44.788;10.334;2024-01-27T07:54:07;50.05;;;32.42;;
28174;SDS011;59417;44.788;10.334;2024-01-27T07:56:34;45.53;;;30.63;;
28174;SDS011;59417;44.788;10.334;2024-01-27T07:59:00;52.33;;;32.65;;
28174;SDS011;59417;44.788;10.334;2024-01-27T08:01:26;52.45;;;31.80;;
28174;SDS011;59417;44.788;10.334;2024-01-27T08:03:52;73.88;;;35.47;;
28174;SDS011;59417;44.788;10.334;2024-01-27T08:06:18;68.18;;;32.70;;
28174;SDS011;59417;44.788;10.334;2024-01-27T08:08:48;73.32;;;32.92;;
28174;SDS011;59417;44.788;10.334;2024-01-27T08:11:18;55.50;;;32.63;;
28174;SDS011;59417;44.788;10.334;2024-01-27T08:13:44;56.63;;;36.27;;
28174;SDS011;59417;44.788;10.334;2024-01-27T08:16:10;51.50;;;34.00;;
28174;SDS011;59417;44.788;10.334;2024-01-27T08:18:39;51.30;;;33.67;;
28174;SDS011;59417;44.788;10.334;2024-01-27T08:21:08;48.73;;;34.43;;
28174;SDS011;59417;44.788;10.334;2024-01-27T08:23:34;50.03;;;33.72;;
28174;SDS011;59417;44.788;10.334;2024-01-27T08:26:00;48.75;;;34.05;;
28174;SDS011;59417;44.788;10.334;2024-01-27T08:28:25;51.63;;;35.67;;
28174;SDS011;59417;44.788;10.334;2024-01-27T08:30:54;46.22;;;33.88;;
28174;SDS011;59417;44.788;10.334;2024-01-27T08:33:20;45.08;;;32.80;;
28174;SDS011;59417;44.788;10.334;2024-01-27T08:35:46;48.17;;;32.17;;
28174;SDS011;59417;44.788;10.334;2024-01-27T08:38:15;48.57;;;32.07;;
28174;SDS011;59417;44.788;10.334;2024-01-27T08:40:43;53.15;;;35.78;;
28174;SDS011;59417;44.788;10.334;2024-01-27T08:43:09;45.83;;;34.17;;
28174;SDS011;59417;44.788;10.334;2024-01-27T08:45:36;48.53;;;33.88;;
28174;SDS011;59417;44.788;10.334;2024-01-27T08:48:05;47.45;;;33.25;;
28174;SDS011;59417;44.788;10.334;2024-01-27T08:50:31;46.67;;;31.10;;
28174;SDS011;59417;44.788;10.334;2024-01-27T08:52:57;51.40;;;33.42;;
28174;SDS011;59417;44.788;10.334;2024-01-27T08:55:23;47.90;;;33.60;;
28174;SDS011;59417;44.788;10.334;2024-01-27T08:57:53;47.80;;;33.40;;
28174;SDS011;59417;44.788;10.334;2024-01-27T09:00:19;55.07;;;36.07;;
28174;SDS011;59417;44.788;10.334;2024-01-27T09:02:45;50.17;;;33.40;;
28174;SDS011;59417;44.788;10.334;2024-01-27T09:05:16;53.80;;;35.90;;
28174;SDS011;59417;44.788;10.334;2024-01-27T09:07:41;55.65;;;36.30;;
28174;SDS011;59417;44.788;10.334;2024-01-27T09:10:07;56.63;;;34.78;;
28174;SDS011;59417;44.788;10.334;2024-01-27T09:12:37;48.85;;;35.17;;
28174;SDS011;59417;44.788;10.334;2024-01-27T09:15:04;54.28;;;37.60;;
28174;SDS011;59417;44.788;10.334;2024-01-27T09:17:36;52.13;;;34.80;;
28174;SDS011;59417;44.788;10.334;2024-01-27T09:20:06;53.45;;;35.53;;
28174;SDS011;59417;44.788;10.334;2024-01-27T09:22:32;49.28;;;35.35;;
28174;SDS011;59417;44.788;10.334;2024-01-27T09:24:57;50.25;;;37.13;;
28174;SDS011;59417;44.788;10.334;2024-01-27T09:27:23;46.70;;;34.13;;
28174;SDS011;59417;44.788;10.334;2024-01-27T09:29:48;48.28;;;34.53;;
28174;SDS011;59417;44.788;10.334;2024-01-27T09:32:14;41.78;;;30.05;;
28174;SDS011;59417;44.788;10.334;2024-01-27T09:34:41;48.80;;;30.63;;
28174;SDS011;59417;44.788;10.334;2024-01-27T09:37:06;44.80;;;31.00;;
28174;SDS011;59417;44.788;10.334;2024-01-27T09:39:34;43.60;;;31.15;;
28174;SDS011;59417;44.788;10.334;2024-01-27T09:42:02;44.38;;;31.98;;
28174;SDS011;59417;44.788;10.334;2024-01-27T09:44:31;42.47;;;31.98;;
28174;SDS011;59417;44.788;10.334;2024-01-27T09:47:00;39.40;;;30.75;;
28174;SDS011;59417;44.788;10.334;2024-01-27T09:49:31;46.42;;;32.58;;
28174;SDS011;59417;44.788;10.334;2024-01-27T09:51:57;46.80;;;33.50;;
28174;SDS011;59417;44.788;10.334;2024-01-27T09:54:28;47.27;;;33.20;;
28174;SDS011;59417;44.788;10.334;2024-01-27T09:59:21;43.13;;;31.35;;
28174;SDS011;59417;44.788;10.334;2024-01-27T10:01:48;46.90;;;32.60;;
28174;SDS011;59417;44.788;10.334;2024-01-27T10:04:21;44.28;;;33.92;;
28174;SDS011;59417;44.788;10.334;2024-01-27T10:06:53;50.10;;;36.40;;
28174;SDS011;59417;44.788;10.334;2024-01-27T10:09:19;45.53;;;35.00;;
28174;SDS011;59417;44.788;10.334;2024-01-27T10:11:46;49.72;;;36.92;;
28174;SDS011;59417;44.788;10.334;2024-01-27T10:14:13;52.35;;;36.15;;
28174;SDS011;59417;44.788;10.334;2024-01-27T10:16:43;53.55;;;38.40;;
28174;SDS011;59417;44.788;10.334;2024-01-27T10:19:19;53.80;;;37.05;;
28174;SDS011;59417;44.788;10.334;2024-01-27T10:21:59;53.50;;;37.15;;
28174;SDS011;59417;44.788;10.334;2024-01-27T10:24:25;47.92;;;35.95;;
28174;SDS011;59417;44.788;10.334;2024-01-27T10:27:00;48.38;;;35.28;;
28174;SDS011;59417;44.788;10.334;2024-01-27T10:29:32;50.70;;;34.67;;
28174;SDS011;59417;44.788;10.334;2024-01-27T10:32:08;51.20;;;36.83;;
28174;SDS011;59417;44.788;10.334;2024-01-27T10:34:35;47.17;;;35.15;;
28174;SDS011;59417;44.788;10.334;2024-01-27T10:37:01;54.42;;;37.28;;
28174;SDS011;59417;44.788;10.334;2024-01-27T10:39:27;50.92;;;37.53;;
28174;SDS011;59417;44.788;10.334;2024-01-27T10:41:58;53.63;;;37.92;;
28174;SDS011;59417;44.788;10.334;2024-01-27T10:44:31;51.28;;;36.90;;
28174;SDS011;59417;44.788;10.334;2024-01-27T10:47:01;55.35;;;39.08;;
28174;SDS011;59417;44.788;10.334;2024-01-27T10:49:28;52.70;;;36.13;;
28174;SDS011;59417;44.788;10.334;2024-01-27T10:51:59;55.90;;;38.83;;
28174;SDS011;59417;44.788;10.334;2024-01-27T10:54:33;53.92;;;38.88;;
28174;SDS011;59417;44.788;10.334;2024-01-27T10:57:00;53.67;;;39.92;;
28174;SDS011;59417;44.788;10.334;2024-01-27T10:59:28;53.45;;;39.55;;
28174;SDS011;59417;44.788;10.334;2024-01-27T11:01:57;59.55;;;40.22;;
28174;SDS011;59417;44.788;10.334;2024-01-27T11:04:23;62.03;;;41.30;;
28174;SDS011;59417;44.788;10.334;2024-01-27T11:06:51;58.90;;;42.10;;
28174;SDS011;59417;44.788;10.334;2024-01-27T11:09:17;51.35;;;38.05;;
28174;SDS011;59417;44.788;10.334;2024-01-27T11:11:44;58.95;;;39.08;;
28174;SDS011;59417;44.788;10.334;2024-01-27T11:14:16;53.53;;;39.47;;
28174;SDS011;59417;44.788;10.334;2024-01-27T11:16:42;63.72;;;42.60;;
28174;SDS011;59417;44.788;10.334;2024-01-27T11:19:10;58.85;;;41.70;;
28174;SDS011;59417;44.788;10.334;2024-01-27T11:21:39;58.38;;;39.78;;
28174;SDS011;59417;44.788;10.334;2024-01-27T11:24:12;63.65;;;41.25;;
28174;SDS011;59417;44.788;10.334;2024-01-27T11:26:45;56.47;;;40.92;;
28174;SDS011;59417;44.788;10.334;2024-01-27T11:29:11;58.75;;;40.92;;
28174;SDS011;59417;44.788;10.334;2024-01-27T11:31:47;61.83;;;41.58;;
28174;SDS011;59417;44.788;10.334;2024-01-27T11:34:18;58.75;;;43.70;;
28174;SDS011;59417;44.788;10.334;2024-01-27T11:36:45;58.50;;;42.13;;
28174;SDS011;59417;44.788;10.334;2024-01-27T11:39:24;56.60;;;41.05;;
28174;SDS011;59417;44.788;10.334;2024-01-27T11:42:04;55.78;;;39.72;;
28174;SDS011;59417;44.788;10.334;2024-01-27T11:44:54;61.58;;;42.25;;
28174;SDS011;59417;44.788;10.334;2024-01-27T11:47:20;57.45;;;43.72;;
28174;SDS011;59417;44.788;10.334;2024-01-27T11:49:52;60.90;;;42.00;;
28174;SDS011;59417;44.788;10.334;2024-01-27T11:52:19;62.65;;;43.35;;
28174;SDS011;59417;44.788;10.334;2024-01-27T11:54:57;55.72;;;40.70;;
28174;SDS011;59417;44.788;10.334;2024-01-27T11:57:24;55.67;;;41.28;;
28174;SDS011;59417;44.788;10.334;2024-01-27T11:59:51;59.05;;;40.78;;
28174;SDS011;59417;44.788;10.334;2024-01-27T12:02:20;54.63;;;41.28;;
28174;SDS011;59417;44.788;10.334;2024-01-27T12:04:52;62.30;;;41.33;;
28174;SDS011;59417;44.788;10.334;2024-01-27T12:07:18;54.88;;;40.58;;
28174;SDS011;59417;44.788;10.334;2024-01-27T12:09:45;58.03;;;42.95;;
28174;SDS011;59417;44.788;10.334;2024-01-27T12:12:12;63.25;;;43.58;;
28174;SDS011;59417;44.788;10.334;2024-01-27T12:14:41;55.53;;;43.22;;
28174;SDS011;59417;44.788;10.334;2024-01-27T12:17:12;57.70;;;42.38;;
28174;SDS011;59417;44.788;10.334;2024-01-27T12:19:38;57.13;;;39.90;;
28174;SDS011;59417;44.788;10.334;2024-01-27T12:22:05;60.65;;;43.08;;
28174;SDS011;59417;44.788;10.334;2024-01-27T12:24:53;60.72;;;45.38;;
28174;SDS011;59417;44.788;10.334;2024-01-27T12:27:36;66.07;;;43.33;;
28174;SDS011;59417;44.788;10.334;2024-01-27T12:30:03;58.75;;;42.72;;
28174;SDS011;59417;44.788;10.334;2024-01-27T12:32:30;59.25;;;43.08;;
28174;SDS011;59417;44.788;10.334;2024-01-27T12:35:03;63.72;;;44.92;;
28174;SDS011;59417;44.788;10.334;2024-01-27T12:37:34;56.90;;;43.22;;
28174;SDS011;59417;44.788;10.334;2024-01-27T12:40:03;60.42;;;43.97;;
28174;SDS011;59417;44.788;10.334;2024-01-27T12:42:42;58.65;;;44.15;;
28174;SDS011;59417;44.788;10.334;2024-01-27T12:45:07;56.60;;;42.42;;
28174;SDS011;59417;44.788;10.334;2024-01-27T12:47:33;60.05;;;41.83;;
28174;SDS011;59417;44.788;10.334;2024-01-27T12:50:03;59.65;;;42.08;;
28174;SDS011;59417;44.788;10.334;2024-01-27T12:52:29;62.40;;;44.17;;
28174;SDS011;59417;44.788;10.334;2024-01-27T12:55:02;59.40;;;45.22;;
28174;SDS011;59417;44.788;10.334;2024-01-27T12:57:29;57.58;;;41.17;;
28174;SDS011;59417;44.788;10.334;2024-01-27T12:59:55;53.35;;;41.72;;
28174;SDS011;59417;44.788;10.334;2024-01-27T13:02:21;58.63;;;45.60;;
28174;SDS011;59417;44.788;10.334;2024-01-27T13:04:48;64.70;;;46.15;;
28174;SDS011;59417;44.788;10.334;2024-01-27T13:07:14;58.03;;;44.50;;
28174;SDS011;59417;44.788;10.334;2024-01-27T13:09:41;67.47;;;47.33;;
28174;SDS011;59417;44.788;10.334;2024-01-27T13:12:07;64.53;;;47.80;;
28174;SDS011;59417;44.788;10.334;2024-01-27T13:14:36;62.70;;;45.22;;
28174;SDS011;59417;44.788;10.334;2024-01-27T13:17:05;62.22;;;45.65;;
28174;SDS011;59417;44.788;10.334;2024-01-27T13:19:34;66.30;;;45.22;;
28174;SDS011;59417;44.788;10.334;2024-01-27T13:24:28;62.53;;;43.92;;
28174;SDS011;59417;44.788;10.334;2024-01-27T13:26:54;61.42;;;42.13;;
28174;SDS011;59417;44.788;10.334;2024-01-27T13:29:22;55.85;;;41.22;;
28174;SDS011;59417;44.788;10.334;2024-01-27T13:31:52;56.30;;;41.50;;
28174;SDS011;59417;44.788;10.334;2024-01-27T13:34:18;52.75;;;37.17;;
28174;SDS011;59417;44.788;10.334;2024-01-27T13:36:43;50.85;;;38.63;;
28174;SDS011;59417;44.788;10.334;2024-01-27T13:39:09;52.75;;;39.00;;
28174;SDS011;59417;44.788;10.334;2024-01-27T13:41:36;52.67;;;38.75;;
28174;SDS011;59417;44.788;10.334;2024-01-27T13:44:03;51.20;;;40.08;;
28174;SDS011;59417;44.788;10.334;2024-01-27T13:46:31;55.38;;;41.85;;
28174;SDS011;59417;44.788;10.334;2024-01-27T13:48:57;50.85;;;38.83;;
28174;SDS011;59417;44.788;10.334;2024-01-27T13:51:23;58.05;;;41.42;;
28174;SDS011;59417;44.788;10.334;2024-01-27T13:53:49;51.55;;;40.72;;
28174;SDS011;59417;44.788;10.334;2024-01-27T13:56:15;57.30;;;42.17;;
28174;SDS011;59417;44.788;10.334;2024-01-27T13:58:42;62.42;;;43.20;;
28174;SDS011;59417;44.788;10.334;2024-01-27T14:01:09;60.10;;;41.95;;
28174;SDS011;59417;44.788;10.334;2024-01-27T14:03:35;54.17;;;41.72;;
28174;SDS011;59417;44.788;10.334;2024-01-27T14:06:02;55.30;;;41.63;;
28174;SDS011;59417;44.788;10.334;2024-01-27T14:08:28;57.10;;;42.88;;
28174;SDS011;59417;44.788;10.334;2024-01-27T14:10:57;55.70;;;40.95;;
28174;SDS011;59417;44.788;10.334;2024-01-27T14:13:26;56.33;;;40.38;;
28174;SDS011;59417;44.788;10.334;2024-01-27T14:15:52;53.85;;;41.20;;